createdAt,value
2023-04-26T00:00:15.094Z,1006.13
2023-04-26T00:00:35.980Z,1006.13
2023-04-26T00:01:01.437Z,1006.13
2023-04-26T00:01:34.460Z,1006.13
2023-04-26T00:02:06.479Z,1006.13
2023-04-26T00:02:36.316Z,1006.13
2023-04-26T00:02:54.558Z,1006.13
2023-04-26T00:03:25.593Z,1006.13
2023-04-26T00:03:42.865Z,1006.13
2023-04-26T00:04:13.971Z,1006.13
2023-04-26T00:04:36.112Z,1005.93
2023-04-26T00:05:03.488Z,1005.93
2023-04-26T00:05:33.543Z,1005.93
2023-04-26T00:06:05.531Z,1006.23
2023-04-26T00:06:35.978Z,1006.13
2023-04-26T00:06:53.705Z,1006.13
2023-04-26T00:07:33.191Z,1006.13
2023-04-26T00:07:57.492Z,1006.03
2023-04-26T00:08:29.496Z,1006.03
2023-04-26T00:09:01.489Z,1006.03
2023-04-26T00:09:33.726Z,1006.03
2023-04-26T00:10:09.770Z,1006.03
2023-04-26T00:10:35.899Z,1006.13
2023-04-26T00:10:56.921Z,1006.13
2023-04-26T00:11:25.479Z,1006.13
2023-04-26T00:11:43.545Z,1006.03
2023-04-26T00:12:14.566Z,1006.03
2023-04-26T00:12:35.981Z,1006.13
2023-04-26T00:13:01.509Z,1006.13
2023-04-26T00:13:35.189Z,1006.13
2023-04-26T00:14:06.391Z,1006.13
2023-04-26T00:14:41.326Z,1006.03
2023-04-26T00:15:09.694Z,1006.03
2023-04-26T00:15:35.843Z,1006.03
2023-04-26T00:15:57.705Z,1006.03
2023-04-26T00:16:29.468Z,1006.03
2023-04-26T00:17:02.518Z,1006.23
2023-04-26T00:17:33.648Z,1006.23
2023-04-26T00:18:05.784Z,1006.13
2023-04-26T00:18:36.612Z,1006.03
2023-04-26T00:18:54.855Z,1006.03
2023-04-26T00:19:28.515Z,1006.03
2023-04-26T00:19:59.111Z,1006.13
2023-04-26T00:20:29.663Z,1006.13
2023-04-26T00:21:01.433Z,1006.23
2023-04-26T00:21:33.615Z,1006.23
2023-04-26T00:22:06.457Z,1006.13
2023-04-26T00:22:35.855Z,1006.03
2023-04-26T00:22:53.806Z,1006.03
2023-04-26T00:23:26.226Z,1006.03
2023-04-26T00:23:44.421Z,1005.93
2023-04-26T00:24:13.613Z,1005.93
2023-04-26T00:24:35.912Z,1005.93
2023-04-26T00:25:01.711Z,1005.93
2023-04-26T00:25:34.903Z,1005.93
2023-04-26T00:26:08.694Z,1006.03
2023-04-26T00:26:37.500Z,1006.13
2023-04-26T00:27:09.596Z,1006.13
2023-04-26T00:27:35.887Z,1005.82
2023-04-26T00:27:57.549Z,1005.82
2023-04-26T00:28:29.417Z,1005.82
2023-04-26T00:29:02.436Z,1006.03
2023-04-26T00:29:33.536Z,1006.03
2023-04-26T00:30:06.509Z,1006.03
2023-04-26T00:30:35.936Z,1006.03
2023-04-26T00:30:53.744Z,1006.03
2023-04-26T00:31:25.525Z,1006.03
2023-04-26T00:31:42.945Z,1005.93
2023-04-26T00:32:14.356Z,1005.93
2023-04-26T00:32:35.955Z,1006.23
2023-04-26T00:33:01.735Z,1006.23
2023-04-26T00:33:33.552Z,1006.23
2023-04-26T00:34:06.444Z,1006.03
2023-04-26T00:34:35.963Z,1005.82
2023-04-26T00:34:53.672Z,1005.82
2023-04-26T00:35:26.400Z,1005.82
2023-04-26T00:35:43.495Z,1005.93
2023-04-26T00:36:13.571Z,1005.93
2023-04-26T00:36:36.087Z,1006.13
2023-04-26T00:37:02.379Z,1006.13
2023-04-26T00:37:33.619Z,1006.13
2023-04-26T00:38:06.294Z,1005.93
2023-04-26T00:38:36.077Z,1006.13
2023-04-26T00:38:54.077Z,1006.13
2023-04-26T00:39:25.491Z,1006.13
2023-04-26T00:39:42.617Z,1005.82
2023-04-26T00:40:14.878Z,1005.82
2023-04-26T00:40:36.190Z,1005.93
2023-04-26T00:41:01.509Z,1005.93
2023-04-26T00:41:33.545Z,1005.93
2023-04-26T00:42:05.655Z,1006.03
2023-04-26T00:42:35.883Z,1006.03
2023-04-26T00:42:54.431Z,1006.03
2023-04-26T00:43:26.109Z,1006.03
2023-04-26T00:43:43.918Z,1005.93
2023-04-26T00:44:14.156Z,1005.93
2023-04-26T00:44:35.973Z,1005.82
2023-04-26T00:45:01.754Z,1005.82
2023-04-26T00:45:34.438Z,1005.82
2023-04-26T00:46:05.642Z,1005.93
2023-04-26T00:46:37.683Z,1006.13
2023-04-26T00:47:10.009Z,1006.13
2023-04-26T00:47:35.894Z,1005.93
2023-04-26T00:47:58.455Z,1005.93
2023-04-26T00:48:29.508Z,1005.93
2023-04-26T00:49:01.506Z,1005.82
2023-04-26T00:49:33.550Z,1005.82
2023-04-26T00:50:05.821Z,1006.03
2023-04-26T00:50:35.970Z,1005.62
2023-04-26T00:50:53.774Z,1005.62
2023-04-26T00:51:26.294Z,1005.62
2023-04-26T00:51:43.604Z,1006.03
2023-04-26T00:52:13.633Z,1006.03
2023-04-26T00:52:36.081Z,1006.03
2023-04-26T00:53:01.482Z,1006.03
2023-04-26T00:53:34.121Z,1006.03
2023-04-26T00:54:05.597Z,1005.82
2023-04-26T00:54:36.213Z,1005.93
2023-04-26T00:54:56.137Z,1005.93
2023-04-26T00:55:25.757Z,1005.93
2023-04-26T00:55:42.936Z,1006.03
2023-04-26T00:56:13.893Z,1006.03
2023-04-26T00:56:35.967Z,1005.93
2023-04-26T00:57:02.377Z,1005.93
2023-04-26T00:57:33.590Z,1005.93
2023-04-26T00:58:07.198Z,1006.03
2023-04-26T00:58:36.252Z,1006.13
2023-04-26T00:58:54.131Z,1006.13
2023-04-26T00:59:26.308Z,1006.13
2023-04-26T00:59:43.631Z,1005.93
2023-04-26T01:00:15.207Z,1005.93
2023-04-26T01:00:36.271Z,1006.03
2023-04-26T01:01:04.224Z,1006.03
2023-04-26T01:01:34.447Z,1006.03
2023-04-26T01:02:06.445Z,1005.82
2023-04-26T01:02:36.128Z,1005.93
2023-04-26T01:02:53.897Z,1005.93
2023-04-26T01:03:26.442Z,1005.93
2023-04-26T01:03:44.246Z,1006.03
2023-04-26T01:04:13.796Z,1006.03
2023-04-26T01:04:36.102Z,1005.72
2023-04-26T01:05:01.701Z,1005.72
2023-04-26T01:05:34.038Z,1005.72
2023-04-26T01:06:06.326Z,1005.93
2023-04-26T01:06:36.393Z,1005.82
2023-04-26T01:06:53.509Z,1005.82
2023-04-26T01:07:25.654Z,1005.82
2023-04-26T01:07:43.454Z,1005.82
2023-04-26T01:08:15.523Z,1005.82
2023-04-26T01:08:35.967Z,1006.13
2023-04-26T01:09:01.815Z,1006.13
2023-04-26T01:09:33.470Z,1006.13
2023-04-26T01:10:06.576Z,1005.93
2023-04-26T01:10:36.166Z,1006.03
2023-04-26T01:10:53.703Z,1006.03
2023-04-26T01:11:26.295Z,1006.03
2023-04-26T01:11:44.922Z,1006.03
2023-04-26T01:12:13.552Z,1006.03
2023-04-26T01:12:36.032Z,1005.82
2023-04-26T01:13:01.522Z,1005.82
2023-04-26T01:13:34.350Z,1005.82
2023-04-26T01:14:05.579Z,1006.03
2023-04-26T01:14:36.022Z,1006.03
2023-04-26T01:14:54.438Z,1006.03
2023-04-26T01:15:25.827Z,1006.03
2023-04-26T01:15:42.720Z,1005.72
2023-04-26T01:16:15.602Z,1005.72
2023-04-26T01:16:37.119Z,1005.82
2023-04-26T01:17:01.709Z,1005.82
2023-04-26T01:17:34.479Z,1005.82
2023-04-26T01:18:21.534Z,1006.03
2023-04-26T01:18:54.482Z,1006.13
2023-04-26T01:19:25.606Z,1006.13
2023-04-26T01:19:42.654Z,1006.13
2023-04-26T01:20:14.966Z,1006.13
2023-04-26T01:20:36.069Z,1005.93
2023-04-26T01:21:03.448Z,1005.93
2023-04-26T01:21:33.514Z,1005.93
2023-04-26T01:22:05.790Z,1006.13
2023-04-26T01:22:36.096Z,1005.93
2023-04-26T01:22:53.547Z,1005.93
2023-04-26T01:23:26.173Z,1005.93
2023-04-26T01:23:44.078Z,1005.93
2023-04-26T01:24:13.553Z,1005.93
2023-04-26T01:24:35.855Z,1005.82
2023-04-26T01:25:01.819Z,1005.82
2023-04-26T01:25:34.000Z,1005.82
2023-04-26T01:26:06.392Z,1005.82
2023-04-26T01:26:35.968Z,1005.82
2023-04-26T01:26:53.554Z,1005.82
2023-04-26T01:27:26.579Z,1005.82
2023-04-26T01:27:44.223Z,1005.93
2023-04-26T01:28:13.568Z,1005.93
2023-04-26T01:28:35.988Z,1006.13
2023-04-26T01:29:02.318Z,1006.13
2023-04-26T01:29:33.922Z,1006.13
2023-04-26T01:30:06.089Z,1006.03
2023-04-26T01:30:35.971Z,1006.03
2023-04-26T01:30:53.792Z,1006.03
2023-04-26T01:31:26.276Z,1006.03
2023-04-26T01:31:44.058Z,1005.93
2023-04-26T01:32:13.993Z,1005.93
2023-04-26T01:32:36.046Z,1006.03
2023-04-26T01:33:17.757Z,1006.03
2023-04-26T01:33:36.031Z,1006.03
2023-04-26T01:34:05.793Z,1006.03
2023-04-26T01:34:36.613Z,1006.13
2023-04-26T01:35:09.760Z,1006.13
2023-04-26T01:35:35.881Z,1005.93
2023-04-26T01:35:58.523Z,1005.93
2023-04-26T01:36:29.557Z,1005.93
2023-04-26T01:37:01.483Z,1005.93
2023-04-26T01:37:33.491Z,1005.93
2023-04-26T01:38:05.555Z,1005.93
2023-04-26T01:38:35.946Z,1005.82
2023-04-26T01:38:53.772Z,1005.82
2023-04-26T01:39:26.296Z,1005.82
2023-04-26T01:39:43.980Z,1005.82
2023-04-26T01:40:13.819Z,1005.82
2023-04-26T01:40:36.007Z,1005.93
2023-04-26T01:41:02.330Z,1005.93
2023-04-26T01:41:33.570Z,1005.93
2023-04-26T01:42:05.669Z,1005.93
2023-04-26T01:42:36.126Z,1006.03
2023-04-26T01:42:53.524Z,1006.03
2023-04-26T01:43:27.104Z,1006.03
2023-04-26T01:43:44.611Z,1005.93
2023-04-26T01:44:14.343Z,1005.93
2023-04-26T01:44:36.842Z,1005.93
2023-04-26T01:45:01.744Z,1005.93
2023-04-26T01:45:33.535Z,1005.93
2023-04-26T01:46:05.911Z,1006.13
2023-04-26T01:46:36.891Z,1006.03
2023-04-26T01:47:08.998Z,1006.03
2023-04-26T01:47:26.161Z,1006.03
2023-04-26T01:47:43.367Z,1005.93
2023-04-26T01:48:13.797Z,1005.93
2023-04-26T01:48:36.020Z,1005.72
2023-04-26T01:49:03.076Z,1005.72
2023-04-26T01:49:33.531Z,1005.72
2023-04-26T01:50:05.748Z,1005.93
2023-04-26T01:50:35.949Z,1006.03
2023-04-26T01:50:53.829Z,1006.03
2023-04-26T01:51:27.227Z,1006.03
2023-04-26T01:51:44.049Z,1005.72
2023-04-26T01:52:14.670Z,1005.72
2023-04-26T01:52:35.978Z,1006.03
2023-04-26T01:53:01.522Z,1006.03
2023-04-26T01:53:33.550Z,1006.03
2023-04-26T01:54:06.238Z,1006.03
2023-04-26T01:54:35.980Z,1006.03
2023-04-26T01:54:53.326Z,1006.03
2023-04-26T01:55:26.660Z,1006.03
2023-04-26T01:55:42.653Z,1005.82
2023-04-26T01:56:14.415Z,1005.82
2023-04-26T01:56:36.020Z,1005.93
2023-04-26T01:57:01.825Z,1005.93
2023-04-26T01:57:34.310Z,1005.93
2023-04-26T01:58:06.585Z,1006.03
2023-04-26T01:58:36.141Z,1005.82
2023-04-26T01:58:55.155Z,1005.82
2023-04-26T01:59:25.589Z,1005.82
2023-04-26T01:59:42.655Z,1006.03
2023-04-26T02:00:15.138Z,1006.03
2023-04-26T02:00:35.970Z,1005.82
2023-04-26T02:01:01.598Z,1005.82
2023-04-26T02:01:39.254Z,1005.82
2023-04-26T02:02:05.967Z,1005.82
2023-04-26T02:02:36.074Z,1006.03
2023-04-26T02:02:53.606Z,1006.03
2023-04-26T02:03:25.612Z,1006.03
2023-04-26T02:03:42.953Z,1005.82
2023-04-26T02:04:14.429Z,1005.82
2023-04-26T02:04:36.151Z,1006.13
2023-04-26T02:05:01.690Z,1006.13
2023-04-26T02:05:34.504Z,1006.13
2023-04-26T02:06:06.581Z,1005.82
2023-04-26T02:06:36.044Z,1005.93
2023-04-26T02:06:54.326Z,1005.93
2023-04-26T02:07:35.930Z,1005.93
2023-04-26T02:07:58.378Z,1005.93
2023-04-26T02:08:29.587Z,1005.93
2023-04-26T02:09:01.480Z,1006.03
2023-04-26T02:09:33.567Z,1006.03
2023-04-26T02:10:05.822Z,1006.03
2023-04-26T02:10:36.937Z,1005.82
2023-04-26T02:11:08.955Z,1005.82
2023-04-26T02:11:26.335Z,1005.82
2023-04-26T02:11:43.385Z,1006.03
2023-04-26T02:12:13.524Z,1006.03
2023-04-26T02:12:35.972Z,1006.13
2023-04-26T02:13:01.531Z,1006.13
2023-04-26T02:13:34.872Z,1006.13
2023-04-26T02:14:05.594Z,1005.82
2023-04-26T02:14:36.692Z,1005.93
2023-04-26T02:15:09.747Z,1005.93
2023-04-26T02:15:35.966Z,1005.93
2023-04-26T02:15:58.618Z,1005.93
2023-04-26T02:16:29.631Z,1005.93
2023-04-26T02:17:02.293Z,1006.13
2023-04-26T02:17:33.694Z,1006.13
2023-04-26T02:18:05.687Z,1005.82
2023-04-26T02:18:35.925Z,1005.93
2023-04-26T02:18:54.046Z,1005.93
2023-04-26T02:19:28.460Z,1005.93
2023-04-26T02:19:57.904Z,1005.82
2023-04-26T02:20:29.723Z,1005.82
2023-04-26T02:21:01.591Z,1005.93
2023-04-26T02:21:33.570Z,1005.93
2023-04-26T02:22:05.813Z,1006.03
2023-04-26T02:22:36.760Z,1006.13
2023-04-26T02:22:54.345Z,1006.13
2023-04-26T02:23:25.650Z,1006.13
2023-04-26T02:23:42.858Z,1005.72
2023-04-26T02:24:14.433Z,1005.72
2023-04-26T02:24:36.003Z,1005.72
2023-04-26T02:25:01.742Z,1005.72
2023-04-26T02:25:34.111Z,1005.72
2023-04-26T02:26:05.695Z,1005.93
2023-04-26T02:26:36.088Z,1005.93
2023-04-26T02:26:53.569Z,1005.93
2023-04-26T02:27:26.255Z,1005.93
2023-04-26T02:27:43.444Z,1005.93
2023-04-26T02:28:13.596Z,1005.93
2023-04-26T02:28:36.046Z,1005.72
2023-04-26T02:29:02.331Z,1005.72
2023-04-26T02:29:43.074Z,1005.72
2023-04-26T02:30:05.885Z,1005.93
2023-04-26T02:30:35.987Z,1006.23
2023-04-26T02:30:53.806Z,1006.23
2023-04-26T02:31:26.358Z,1006.23
2023-04-26T02:31:43.456Z,1005.93
2023-04-26T02:32:13.565Z,1005.93
2023-04-26T02:32:36.114Z,1005.93
2023-04-26T02:33:03.662Z,1005.93
2023-04-26T02:33:33.624Z,1005.93
2023-04-26T02:34:05.987Z,1005.82
2023-04-26T02:34:35.996Z,1006.13
2023-04-26T02:34:53.714Z,1006.13
2023-04-26T02:35:26.607Z,1006.13
2023-04-26T02:35:44.313Z,1005.93
2023-04-26T02:36:13.687Z,1005.93
2023-04-26T02:36:35.960Z,1006.13
2023-04-26T02:37:01.556Z,1006.13
2023-04-26T02:37:35.106Z,1006.13
2023-04-26T02:38:06.378Z,1006.13
2023-04-26T02:38:37.292Z,1005.82
2023-04-26T02:38:53.984Z,1005.82
2023-04-26T02:39:25.738Z,1005.82
2023-04-26T02:39:42.679Z,1006.03
2023-04-26T02:40:14.798Z,1006.03
2023-04-26T02:40:36.015Z,1005.93
2023-04-26T02:41:01.572Z,1005.93
2023-04-26T02:41:35.413Z,1005.93
2023-04-26T02:42:05.692Z,1005.82
2023-04-26T02:42:36.209Z,1005.93
2023-04-26T02:42:54.304Z,1005.93
2023-04-26T02:43:25.604Z,1005.93
2023-04-26T02:43:42.730Z,1005.72
2023-04-26T02:44:14.797Z,1005.72
2023-04-26T02:44:36.159Z,1005.72
2023-04-26T02:45:02.064Z,1005.72
2023-04-26T02:45:34.609Z,1005.72
2023-04-26T02:46:05.629Z,1005.82
2023-04-26T02:46:36.191Z,1005.82
2023-04-26T02:46:54.600Z,1005.82
2023-04-26T02:47:25.922Z,1005.82
2023-04-26T02:47:43.051Z,1006.03
2023-04-26T02:48:14.292Z,1006.03
2023-04-26T02:48:36.187Z,1005.82
2023-04-26T02:49:01.561Z,1005.82
2023-04-26T02:49:34.411Z,1005.82
2023-04-26T02:50:05.918Z,1005.93
2023-04-26T02:50:36.120Z,1005.93
2023-04-26T02:50:54.495Z,1005.93
2023-04-26T02:51:25.582Z,1005.93
2023-04-26T02:51:42.701Z,1005.72
2023-04-26T02:52:14.387Z,1005.72
2023-04-26T02:52:35.993Z,1005.93
2023-04-26T02:53:01.565Z,1005.93
2023-04-26T02:53:33.613Z,1005.93
2023-04-26T02:54:07.048Z,1006.03
2023-04-26T02:54:35.965Z,1005.93
2023-04-26T02:54:53.599Z,1005.93
2023-04-26T02:55:26.596Z,1005.93
2023-04-26T02:55:44.264Z,1006.03
2023-04-26T02:56:13.594Z,1006.03
2023-04-26T02:56:36.003Z,1005.72
2023-04-26T02:57:02.225Z,1005.72
2023-04-26T02:57:33.754Z,1005.72
2023-04-26T02:58:05.712Z,1005.72
2023-04-26T02:58:36.008Z,1005.93
2023-04-26T02:58:53.763Z,1005.93
2023-04-26T02:59:26.274Z,1005.93
2023-04-26T02:59:43.428Z,1005.82
2023-04-26T03:00:14.221Z,1005.82
2023-04-26T03:00:36.044Z,1005.62
2023-04-26T03:01:02.651Z,1005.62
2023-04-26T03:01:33.769Z,1005.62
2023-04-26T03:02:07.350Z,1005.72
2023-04-26T03:02:36.429Z,1005.72
2023-04-26T03:02:53.829Z,1005.72
2023-04-26T03:03:25.938Z,1005.72
2023-04-26T03:03:43.503Z,1005.82
2023-04-26T03:04:14.555Z,1005.82
2023-04-26T03:04:36.296Z,1005.72
2023-04-26T03:05:01.866Z,1005.72
2023-04-26T03:05:34.454Z,1005.72
2023-04-26T03:06:06.653Z,1005.62
2023-04-26T03:06:35.998Z,1005.72
2023-04-26T03:06:54.363Z,1005.72
2023-04-26T03:07:25.583Z,1005.72
2023-04-26T03:07:42.692Z,1005.62
2023-04-26T03:08:14.596Z,1005.62
2023-04-26T03:08:36.366Z,1005.82
2023-04-26T03:09:01.614Z,1005.82
2023-04-26T03:09:33.788Z,1005.82
2023-04-26T03:10:05.824Z,1005.62
2023-04-26T03:10:36.031Z,1005.82
2023-04-26T03:10:53.717Z,1005.82
2023-04-26T03:11:26.454Z,1005.82
2023-04-26T03:11:43.594Z,1005.52
2023-04-26T03:12:14.806Z,1005.52
2023-04-26T03:12:36.141Z,1005.62
2023-04-26T03:13:01.603Z,1005.62
2023-04-26T03:13:34.487Z,1005.62
2023-04-26T03:14:05.669Z,1005.62
2023-04-26T03:14:36.342Z,1005.62
2023-04-26T03:14:54.538Z,1005.62
2023-04-26T03:15:25.926Z,1005.62
2023-04-26T03:15:42.955Z,1005.72
2023-04-26T03:16:14.506Z,1005.72
2023-04-26T03:16:36.006Z,1005.52
2023-04-26T03:17:01.668Z,1005.52
2023-04-26T03:17:34.957Z,1005.52
2023-04-26T03:18:05.717Z,1005.62
2023-04-26T03:18:36.100Z,1005.82
2023-04-26T03:18:54.920Z,1005.82
2023-04-26T03:19:26.103Z,1005.82
2023-04-26T03:19:42.694Z,1005.52
2023-04-26T03:20:14.795Z,1005.52
2023-04-26T03:20:36.053Z,1005.62
2023-04-26T03:21:01.623Z,1005.62
2023-04-26T03:21:35.112Z,1005.62
2023-04-26T03:22:05.961Z,1005.52
2023-04-26T03:22:36.023Z,1005.52
2023-04-26T03:22:54.432Z,1005.52
2023-04-26T03:23:25.589Z,1005.52
2023-04-26T03:23:42.692Z,1005.62
2023-04-26T03:24:14.495Z,1005.62
2023-04-26T03:24:35.973Z,1005.52
2023-04-26T03:25:01.788Z,1005.52
2023-04-26T03:25:33.654Z,1005.52
2023-04-26T03:26:05.710Z,1005.42
2023-04-26T03:26:36.056Z,1005.62
2023-04-26T03:26:53.756Z,1005.62
2023-04-26T03:27:26.341Z,1005.62
2023-04-26T03:27:43.831Z,1005.62
2023-04-26T03:28:13.720Z,1005.62
2023-04-26T03:28:36.179Z,1005.82
2023-04-26T03:29:01.591Z,1005.82
2023-04-26T03:29:35.743Z,1005.82
2023-04-26T03:30:06.191Z,1005.62
2023-04-26T03:30:36.694Z,1005.52
2023-04-26T03:30:53.837Z,1005.52
2023-04-26T03:31:25.668Z,1005.52
2023-04-26T03:31:42.746Z,1005.52
2023-04-26T03:32:14.630Z,1005.52
2023-04-26T03:32:37.122Z,1005.42
2023-04-26T03:33:01.786Z,1005.42
2023-04-26T03:33:33.694Z,1005.42
2023-04-26T03:34:05.894Z,1005.42
2023-04-26T03:34:36.019Z,1005.62
2023-04-26T03:34:53.771Z,1005.62
2023-04-26T03:35:26.624Z,1005.62
2023-04-26T03:35:43.615Z,1005.62
2023-04-26T03:36:13.774Z,1005.62
2023-04-26T03:36:36.904Z,1005.62
2023-04-26T03:37:02.334Z,1005.62
2023-04-26T03:37:33.763Z,1005.62
2023-04-26T03:38:05.662Z,1005.52
2023-04-26T03:38:36.172Z,1005.42
2023-04-26T03:38:54.576Z,1005.42
2023-04-26T03:39:26.412Z,1005.42
2023-04-26T03:39:43.558Z,1005.52
2023-04-26T03:40:14.050Z,1005.52
2023-04-26T03:40:35.996Z,1005.52
2023-04-26T03:41:02.537Z,1005.52
2023-04-26T03:41:33.689Z,1005.52
2023-04-26T03:42:05.678Z,1005.62
2023-04-26T03:42:36.023Z,1005.62
2023-04-26T03:42:53.663Z,1005.62
2023-04-26T03:43:26.354Z,1005.62
2023-04-26T03:43:57.592Z,1005.52
2023-04-26T03:44:31.177Z,1005.52
2023-04-26T03:45:01.851Z,1005.82
2023-04-26T03:45:33.790Z,1005.82
2023-04-26T03:46:05.758Z,1005.42
2023-04-26T03:46:36.046Z,1005.62
2023-04-26T03:46:54.397Z,1005.62
2023-04-26T03:47:25.659Z,1005.62
2023-04-26T03:47:42.744Z,1005.52
2023-04-26T03:48:14.532Z,1005.52
2023-04-26T03:48:36.246Z,1005.42
2023-04-26T03:49:01.615Z,1005.42
2023-04-26T03:49:34.873Z,1005.42
2023-04-26T03:50:05.842Z,1005.72
2023-04-26T03:50:35.980Z,1005.82
2023-04-26T03:50:54.827Z,1005.82
2023-04-26T03:51:25.662Z,1005.82
2023-04-26T03:51:42.826Z,1005.42
2023-04-26T03:52:14.611Z,1005.42
2023-04-26T03:52:36.126Z,1005.62
2023-04-26T03:53:01.638Z,1005.62
2023-04-26T03:53:34.476Z,1005.62
2023-04-26T03:54:05.731Z,1005.62
2023-04-26T03:54:36.148Z,1005.72
2023-04-26T03:54:54.482Z,1005.72
2023-04-26T03:55:25.810Z,1005.72
2023-04-26T03:55:42.687Z,1005.42
2023-04-26T03:56:14.555Z,1005.42
2023-04-26T03:56:35.936Z,1005.62
2023-04-26T03:57:01.620Z,1005.62
2023-04-26T03:57:34.890Z,1005.62
2023-04-26T03:58:05.797Z,1005.62
2023-04-26T03:58:37.431Z,1005.52
2023-04-26T03:59:10.097Z,1005.52
2023-04-26T03:59:35.983Z,1005.62
2023-04-26T03:59:58.499Z,1005.62
2023-04-26T04:00:29.927Z,1005.62
2023-04-26T04:01:02.093Z,1005.62
2023-04-26T04:01:33.780Z,1005.62
2023-04-26T04:02:05.689Z,1005.62
2023-04-26T04:02:36.393Z,1005.42
2023-04-26T04:02:53.857Z,1005.42
2023-04-26T04:03:26.624Z,1005.42
2023-04-26T04:03:43.774Z,1005.62
2023-04-26T04:04:14.140Z,1005.62
2023-04-26T04:04:37.159Z,1005.52
2023-04-26T04:05:01.996Z,1005.52
2023-04-26T04:05:34.340Z,1005.52
2023-04-26T04:06:05.698Z,1005.42
2023-04-26T04:06:36.043Z,1005.62
2023-04-26T04:06:54.529Z,1005.62
2023-04-26T04:07:25.677Z,1005.62
2023-04-26T04:07:42.804Z,1005.72
2023-04-26T04:08:13.676Z,1005.72
2023-04-26T04:08:36.604Z,1005.62
2023-04-26T04:09:03.373Z,1005.62
2023-04-26T04:09:33.713Z,1005.62
2023-04-26T04:10:05.938Z,1005.93
2023-04-26T04:10:36.098Z,1005.93
2023-04-26T04:10:53.811Z,1005.93
2023-04-26T04:11:26.454Z,1005.93
2023-04-26T04:11:45.742Z,1005.93
2023-04-26T04:12:13.828Z,1005.93
2023-04-26T04:12:36.319Z,1005.82
2023-04-26T04:13:02.473Z,1005.82
2023-04-26T04:13:33.851Z,1005.82
2023-04-26T04:14:06.954Z,1005.62
2023-04-26T04:14:36.154Z,1005.62
2023-04-26T04:14:53.829Z,1005.62
2023-04-26T04:15:26.851Z,1005.62
2023-04-26T04:15:44.202Z,1005.72
2023-04-26T04:16:13.910Z,1005.72
2023-04-26T04:16:36.170Z,1005.62
2023-04-26T04:17:01.942Z,1005.62
2023-04-26T04:17:35.027Z,1005.62
2023-04-26T04:18:05.929Z,1005.82
2023-04-26T04:18:36.090Z,1005.72
2023-04-26T04:18:54.147Z,1005.72
2023-04-26T04:19:26.535Z,1005.72
2023-04-26T04:19:43.880Z,1005.62
2023-04-26T04:20:14.189Z,1005.62
2023-04-26T04:20:36.151Z,1005.62
2023-04-26T04:21:01.718Z,1005.62
2023-04-26T04:21:34.651Z,1005.62
2023-04-26T04:22:06.125Z,1005.62
2023-04-26T04:22:36.158Z,1005.62
2023-04-26T04:22:54.567Z,1005.62
2023-04-26T04:23:25.744Z,1005.62
2023-04-26T04:23:42.913Z,1005.62
2023-04-26T04:24:14.925Z,1005.62
2023-04-26T04:24:36.105Z,1005.72
2023-04-26T04:25:01.913Z,1005.72
2023-04-26T04:25:34.744Z,1005.72
2023-04-26T04:26:05.806Z,1005.62
2023-04-26T04:26:36.248Z,1005.82
2023-04-26T04:26:54.701Z,1005.82
2023-04-26T04:27:25.873Z,1005.82
2023-04-26T04:27:42.986Z,1005.62
2023-04-26T04:28:14.640Z,1005.62
2023-04-26T04:28:36.471Z,1005.82
2023-04-26T04:29:01.698Z,1005.82
2023-04-26T04:29:34.898Z,1005.82
2023-04-26T04:30:06.023Z,1005.93
2023-04-26T04:30:36.154Z,1005.82
2023-04-26T04:30:55.620Z,1005.82
2023-04-26T04:31:25.863Z,1005.82
2023-04-26T04:31:42.989Z,1005.82
2023-04-26T04:32:14.779Z,1005.82
2023-04-26T04:32:36.292Z,1005.82
2023-04-26T04:33:01.953Z,1005.82
2023-04-26T04:33:35.010Z,1005.82
2023-04-26T04:34:06.063Z,1005.82
2023-04-26T04:34:36.238Z,1005.93
2023-04-26T04:34:54.579Z,1005.93
2023-04-26T04:35:25.952Z,1005.93
2023-04-26T04:35:42.919Z,1005.72
2023-04-26T04:36:14.018Z,1005.72
2023-04-26T04:36:36.316Z,1005.82
2023-04-26T04:37:02.530Z,1005.82
2023-04-26T04:37:34.573Z,1005.82
2023-04-26T04:38:05.960Z,1005.82
2023-04-26T04:38:36.822Z,1005.82
2023-04-26T04:38:54.478Z,1005.82
2023-04-26T04:39:27.427Z,1005.82
2023-04-26T04:39:44.366Z,1005.72
2023-04-26T04:40:14.042Z,1005.72
2023-04-26T04:40:36.271Z,1005.82
2023-04-26T04:41:02.576Z,1005.82
2023-04-26T04:41:49.468Z,1005.82
2023-04-26T04:42:21.777Z,1005.82
2023-04-26T04:42:53.892Z,1005.72
2023-04-26T04:43:26.035Z,1005.72
2023-04-26T04:43:42.944Z,1005.72
2023-04-26T04:44:15.203Z,1005.72
2023-04-26T04:44:36.175Z,1005.93
2023-04-26T04:45:04.355Z,1005.93
2023-04-26T04:45:35.600Z,1005.93
2023-04-26T04:46:05.953Z,1005.72
2023-04-26T04:46:38.147Z,1005.62
2023-04-26T04:47:09.755Z,1005.62
2023-04-26T04:47:36.116Z,1005.82
2023-04-26T04:47:58.752Z,1005.82
2023-04-26T04:48:29.852Z,1005.82
2023-04-26T04:49:01.851Z,1005.82
2023-04-26T04:49:35.490Z,1005.82
2023-04-26T04:50:06.064Z,1005.72
2023-04-26T04:50:36.407Z,1005.93
2023-04-26T04:50:54.052Z,1005.93
2023-04-26T04:51:26.642Z,1005.93
2023-04-26T04:51:43.672Z,1005.93
2023-04-26T04:52:13.804Z,1005.93
2023-04-26T04:52:36.211Z,1005.93
2023-04-26T04:53:02.485Z,1005.93
2023-04-26T04:53:33.962Z,1005.93
2023-04-26T04:54:06.704Z,1005.82
2023-04-26T04:54:36.222Z,1005.72
2023-04-26T04:54:53.929Z,1005.72
2023-04-26T04:55:26.907Z,1005.72
2023-04-26T04:55:43.860Z,1005.82
2023-04-26T04:56:13.809Z,1005.82
2023-04-26T04:56:36.164Z,1005.82
2023-04-26T04:57:02.809Z,1005.82
2023-04-26T04:57:34.930Z,1005.82
2023-04-26T04:58:06.041Z,1005.82
2023-04-26T04:58:36.439Z,1005.93
2023-04-26T04:58:54.789Z,1005.93
2023-04-26T04:59:26.204Z,1005.93
2023-04-26T04:59:43.060Z,1006.03
2023-04-26T05:00:15.500Z,1006.03
2023-04-26T05:00:36.280Z,1005.93
2023-04-26T05:01:01.852Z,1005.93
2023-04-26T05:01:38.805Z,1005.93
2023-04-26T05:02:05.861Z,1005.93
2023-04-26T05:02:36.308Z,1005.93
2023-04-26T05:02:54.113Z,1005.93
2023-04-26T05:03:25.933Z,1005.93
2023-04-26T05:03:43.069Z,1006.23
2023-04-26T05:04:14.908Z,1006.23
2023-04-26T05:04:37.265Z,1006.13
2023-04-26T05:05:02.162Z,1006.13
2023-04-26T05:05:34.686Z,1006.13
2023-04-26T05:06:05.828Z,1005.93
2023-04-26T05:06:36.247Z,1006.03
2023-04-26T05:06:54.818Z,1006.03
2023-04-26T05:07:27.349Z,1006.03
2023-04-26T05:07:42.896Z,1006.03
2023-04-26T05:08:14.702Z,1006.03
2023-04-26T05:08:36.097Z,1006.03
2023-04-26T05:09:01.799Z,1006.03
2023-04-26T05:09:33.960Z,1006.03
2023-04-26T05:10:06.057Z,1006.13
2023-04-26T05:10:36.190Z,1006.03
2023-04-26T05:10:54.903Z,1006.03
2023-04-26T05:11:26.514Z,1006.03
2023-04-26T05:11:44.060Z,1006.03
2023-04-26T05:12:14.357Z,1006.03
2023-04-26T05:12:36.294Z,1006.13
2023-04-26T05:13:02.724Z,1006.13
2023-04-26T05:13:34.017Z,1006.13
2023-04-26T05:14:05.856Z,1005.82
2023-04-26T05:14:36.131Z,1005.93
2023-04-26T05:14:53.965Z,1005.93
2023-04-26T05:15:26.907Z,1005.93
2023-04-26T05:15:43.862Z,1005.93
2023-04-26T05:16:14.131Z,1005.93
2023-04-26T05:16:36.201Z,1006.03
2023-04-26T05:17:02.737Z,1006.03
2023-04-26T05:17:34.647Z,1006.03
2023-04-26T05:18:05.938Z,1006.13
2023-04-26T05:18:36.175Z,1006.03
2023-04-26T05:18:53.800Z,1006.03
2023-04-26T05:19:26.683Z,1006.03
2023-04-26T05:19:43.869Z,1006.13
2023-04-26T05:20:14.124Z,1006.13
2023-04-26T05:20:36.216Z,1005.93
2023-04-26T05:21:02.683Z,1005.93
2023-04-26T05:21:34.145Z,1005.93
2023-04-26T05:22:06.305Z,1006.13
2023-04-26T05:22:36.531Z,1006.23
2023-04-26T05:22:53.928Z,1006.23
2023-04-26T05:23:26.543Z,1006.23
2023-04-26T05:23:44.114Z,1005.93
2023-04-26T05:24:13.958Z,1005.93
2023-04-26T05:24:36.492Z,1006.13
2023-04-26T05:25:03.212Z,1006.13
2023-04-26T05:25:33.943Z,1006.13
2023-04-26T05:26:08.882Z,1006.23
2023-04-26T05:26:36.735Z,1006.13
2023-04-26T05:26:54.033Z,1006.13
2023-04-26T05:27:26.059Z,1006.13
2023-04-26T05:27:44.871Z,1006.23
2023-04-26T05:28:14.128Z,1006.23
2023-04-26T05:28:52.185Z,1006.23